createdAt,value
2022-10-10T00:07:53.217Z,7.0
2022-10-10T00:19:53.163Z,7.1
2022-10-10T00:31:53.171Z,6.7
2022-10-10T00:43:53.227Z,6.6
2022-10-10T00:55:53.177Z,7.0
2022-10-10T01:07:53.280Z,6.7
2022-10-10T01:19:53.258Z,6.7
2022-10-10T01:31:53.177Z,6.7
2022-10-10T01:43:53.167Z,7.2
2022-10-10T01:55:53.927Z,7.1
2022-10-10T02:07:53.252Z,6.7
2022-10-10T02:19:53.247Z,6.7
2022-10-10T02:31:53.291Z,6.6
2022-10-10T02:43:53.166Z,6.1
2022-10-10T02:55:53.257Z,6.0
2022-10-10T03:07:53.241Z,5.8
2022-10-10T03:19:53.249Z,5.5
2022-10-10T03:31:53.287Z,5.6
2022-10-10T03:43:53.263Z,5.8
2022-10-10T03:55:53.168Z,5.4
2022-10-10T04:07:53.221Z,5.4
2022-10-10T04:19:53.241Z,5.3
2022-10-10T04:31:53.252Z,5.2
2022-10-10T04:43:53.219Z,5.2
2022-10-10T04:55:53.234Z,5.3
2022-10-10T05:07:55.520Z,5.1
2022-10-10T05:19:53.179Z,4.9
2022-10-10T05:31:53.179Z,5.1
2022-10-10T05:43:53.281Z,5.0
2022-10-10T05:55:53.283Z,5.8
2022-10-10T06:08:05.753Z,6.5
2022-10-10T06:19:53.193Z,6.5
2022-10-10T06:31:53.179Z,6.5
2022-10-10T06:43:53.207Z,6.3
2022-10-10T06:55:53.158Z,7.4
2022-10-10T07:07:53.153Z,8.7
2022-10-10T07:19:53.163Z,9.1
2022-10-10T07:31:53.175Z,9.3
2022-10-10T07:43:53.185Z,10.0
2022-10-10T07:55:53.164Z,10.3
2022-10-10T08:07:53.704Z,11.9
2022-10-10T08:19:53.423Z,13.3
2022-10-10T08:31:53.243Z,14.4
2022-10-10T08:43:53.288Z,14.4
2022-10-10T08:55:53.284Z,13.7
2022-10-10T09:07:53.167Z,12.6
2022-10-10T09:19:53.258Z,13.2
2022-10-10T09:31:53.168Z,13.6
2022-10-10T09:43:53.162Z,13.9
2022-10-10T09:55:53.158Z,14.1
2022-10-10T10:07:53.268Z,14.4
2022-10-10T10:19:53.269Z,14.8
2022-10-10T10:31:53.166Z,15.3
2022-10-10T10:43:53.280Z,15.6
2022-10-10T10:55:53.158Z,15.8
2022-10-10T11:07:53.254Z,15.9
2022-10-10T11:19:53.189Z,16.1
2022-10-10T11:31:53.164Z,16.3
2022-10-10T11:43:53.254Z,16.5
2022-10-10T11:55:53.210Z,16.6
2022-10-10T12:07:53.338Z,17.3
2022-10-10T12:19:53.282Z,17.6
2022-10-10T12:31:53.163Z,17.8
2022-10-10T12:43:53.276Z,17.7
2022-10-10T12:55:53.187Z,17.9
2022-10-10T13:07:53.229Z,18.0
2022-10-10T13:19:53.224Z,18.4
2022-10-10T13:31:53.167Z,18.3
2022-10-10T13:43:53.164Z,18.7
2022-10-10T13:55:53.166Z,18.9
2022-10-10T14:07:53.164Z,18.6
2022-10-10T14:19:53.161Z,18.4
2022-10-10T14:31:53.181Z,18.5
2022-10-10T14:43:53.178Z,18.2
2022-10-10T14:55:56.273Z,18.3
2022-10-10T15:07:53.187Z,17.8
2022-10-10T15:19:53.179Z,17.8
2022-10-10T15:31:53.187Z,17.7
2022-10-10T15:43:53.177Z,17.6
2022-10-10T15:55:53.258Z,17.2
2022-10-10T16:07:53.289Z,16.8
2022-10-10T16:19:53.282Z,16.5
2022-10-10T16:31:53.569Z,16.4
2022-10-10T16:43:53.250Z,15.3
2022-10-10T16:55:53.159Z,14.5
2022-10-10T17:07:53.286Z,14.1
2022-10-10T17:19:53.251Z,13.8
2022-10-10T17:31:53.285Z,13.8
2022-10-10T17:43:53.162Z,13.8
2022-10-10T17:55:53.281Z,13.9
2022-10-10T18:07:53.274Z,13.8
2022-10-10T18:19:53.265Z,13.7
2022-10-10T18:31:53.244Z,13.6
2022-10-10T18:43:53.275Z,13.6
2022-10-10T18:55:53.244Z,13.5
2022-10-10T19:07:53.164Z,13.4
2022-10-10T19:19:53.228Z,13.5
2022-10-10T19:31:53.259Z,13.4
2022-10-10T19:43:53.255Z,13.4
2022-10-10T19:55:53.285Z,13.4
2022-10-10T20:07:53.231Z,13.2
2022-10-10T20:19:53.164Z,13.1
2022-10-10T20:31:53.270Z,12.8
2022-10-10T20:43:53.241Z,12.5
2022-10-10T20:55:53.256Z,12.4
2022-10-10T21:07:53.272Z,12.4
2022-10-10T21:19:53.238Z,12.4
2022-10-10T21:31:53.279Z,12.5
2022-10-10T21:43:53.195Z,12.4
2022-10-10T21:55:53.282Z,12.3
2022-10-10T22:07:53.278Z,11.9
2022-10-10T22:19:53.263Z,11.5
2022-10-10T22:31:53.289Z,11.3
2022-10-10T22:43:53.164Z,11.0
2022-10-10T22:55:53.166Z,10.8
2022-10-10T23:07:53.155Z,10.6
2022-10-10T23:19:53.287Z,10.5
2022-10-10T23:31:53.420Z,10.4
2022-10-10T23:43:53.229Z,9.9
2022-10-10T23:55:53.156Z,9.7
